sensor_id;sensor_type;location;lat;lon;timestamp;P1;durP1;ratioP1;P2;durP2;ratioP2
67528;SDS011;54366;51.980;5.856;2023-03-01T00:01:30;4.28;;;3.38;;
67528;SDS011;54366;51.980;5.856;2023-03-01T00:04:03;4.10;;;3.70;;
67528;SDS011;54366;51.980;5.856;2023-03-01T00:06:36;3.70;;;3.40;;
67528;SDS011;54366;51.980;5.856;2023-03-01T00:09:03;4.55;;;3.40;;
67528;SDS011;54366;51.980;5.856;2023-03-01T00:11:36;3.55;;;3.25;;
67528;SDS011;54366;51.980;5.856;2023-03-01T00:14:09;3.17;;;2.90;;
67528;SDS011;54366;51.980;5.856;2023-03-01T00:16:42;4.38;;;3.47;;
67528;SDS011;54366;51.980;5.856;2023-03-01T00:19:16;3.58;;;2.97;;
67528;SDS011;54366;51.980;5.856;2023-03-01T00:21:51;4.20;;;3.50;;
67528;SDS011;54366;51.980;5.856;2023-03-01T00:24:24;3.83;;;3.40;;
67528;SDS011;54366;51.980;5.856;2023-03-01T00:26:52;4.32;;;3.65;;
67528;SDS011;54366;51.980;5.856;2023-03-01T00:29:27;4.60;;;3.60;;
67528;SDS011;54366;51.980;5.856;2023-03-01T00:32:00;4.05;;;3.50;;
67528;SDS011;54366;51.980;5.856;2023-03-01T00:34:33;4.65;;;3.40;;
67528;SDS011;54366;51.980;5.856;2023-03-01T00:37:06;4.00;;;3.60;;
67528;SDS011;54366;51.980;5.856;2023-03-01T00:39:39;4.65;;;3.97;;
67528;SDS011;54366;51.980;5.856;2023-03-01T00:42:12;3.78;;;3.47;;
67528;SDS011;54366;51.980;5.856;2023-03-01T00:44:51;4.30;;;3.90;;
67528;SDS011;54366;51.980;5.856;2023-03-01T00:47:24;4.72;;;4.22;;
67528;SDS011;54366;51.980;5.856;2023-03-01T00:49:57;4.80;;;3.97;;
67528;SDS011;54366;51.980;5.856;2023-03-01T00:52:30;4.00;;;3.67;;
67528;SDS011;54366;51.980;5.856;2023-03-01T00:55:03;5.63;;;4.72;;
67528;SDS011;54366;51.980;5.856;2023-03-01T00:57:37;4.85;;;4.38;;
67528;SDS011;54366;51.980;5.856;2023-03-01T01:00:10;4.80;;;4.40;;
67528;SDS011;54366;51.980;5.856;2023-03-01T01:02:37;5.50;;;4.68;;
67528;SDS011;54366;51.980;5.856;2023-03-01T01:05:10;5.43;;;4.32;;
67528;SDS011;54366;51.980;5.856;2023-03-01T01:07:37;5.88;;;4.88;;
67528;SDS011;54366;51.980;5.856;2023-03-01T01:10:10;4.90;;;4.22;;
67528;SDS011;54366;51.980;5.856;2023-03-01T01:12:49;4.32;;;3.88;;
67528;SDS011;54366;51.980;5.856;2023-03-01T01:15:22;6.03;;;4.28;;
67528;SDS011;54366;51.980;5.856;2023-03-01T01:17:55;7.30;;;5.03;;
67528;SDS011;54366;51.980;5.856;2023-03-01T01:20:28;5.68;;;4.50;;
67528;SDS011;54366;51.980;5.856;2023-03-01T01:23:01;4.90;;;4.40;;
67528;SDS011;54366;51.980;5.856;2023-03-01T01:25:34;5.28;;;4.40;;
67528;SDS011;54366;51.980;5.856;2023-03-01T01:28:01;6.35;;;5.18;;
67528;SDS011;54366;51.980;5.856;2023-03-01T01:30:35;6.82;;;5.57;;
67528;SDS011;54366;51.980;5.856;2023-03-01T01:33:08;4.90;;;4.50;;
67528;SDS011;54366;51.980;5.856;2023-03-01T01:35:41;6.18;;;5.53;;
67528;SDS011;54366;51.980;5.856;2023-03-01T01:38:14;6.10;;;5.50;;
67528;SDS011;54366;51.980;5.856;2023-03-01T01:40:48;8.43;;;6.15;;
67528;SDS011;54366;51.980;5.856;2023-03-01T01:46:32;5.85;;;5.22;;
67528;SDS011;54366;51.980;5.856;2023-03-01T01:52:22;5.70;;;5.10;;
67528;SDS011;54366;51.980;5.856;2023-03-01T01:55:03;6.30;;;5.05;;
67528;SDS011;54366;51.980;5.856;2023-03-01T01:57:43;6.68;;;5.57;;
67528;SDS011;54366;51.980;5.856;2023-03-01T02:00:20;6.43;;;5.22;;
67528;SDS011;54366;51.980;5.856;2023-03-01T02:02:59;6.28;;;5.47;;
67528;SDS011;54366;51.980;5.856;2023-03-01T02:05:40;6.13;;;5.22;;
67528;SDS011;54366;51.980;5.856;2023-03-01T02:11:04;5.90;;;4.97;;
67528;SDS011;54366;51.980;5.856;2023-03-01T02:13:38;6.18;;;5.57;;
67528;SDS011;54366;51.980;5.856;2023-03-01T02:16:11;6.00;;;5.40;;
67528;SDS011;54366;51.980;5.856;2023-03-01T02:18:46;6.82;;;5.53;;
67528;SDS011;54366;51.980;5.856;2023-03-01T02:24:52;5.97;;;4.90;;
67528;SDS011;54366;51.980;5.856;2023-03-01T02:27:29;7.50;;;5.50;;
67528;SDS011;54366;51.980;5.856;2023-03-01T02:30:11;5.78;;;4.70;;
67528;SDS011;54366;51.980;5.856;2023-03-01T02:32:47;5.45;;;4.88;;
67528;SDS011;54366;51.980;5.856;2023-03-01T02:35:22;6.70;;;4.82;;
67528;SDS011;54366;51.980;5.856;2023-03-01T02:37:56;5.53;;;4.80;;
67528;SDS011;54366;51.980;5.856;2023-03-01T02:40:33;5.45;;;4.68;;
67528;SDS011;54366;51.980;5.856;2023-03-01T02:43:15;5.13;;;4.63;;
67528;SDS011;54366;51.980;5.856;2023-03-01T02:45:50;5.75;;;4.97;;
67528;SDS011;54366;51.980;5.856;2023-03-01T02:48:38;5.28;;;4.35;;
67528;SDS011;54366;51.980;5.856;2023-03-01T02:57:21;4.57;;;4.10;;
67528;SDS011;54366;51.980;5.856;2023-03-01T02:59:57;5.85;;;4.97;;
67528;SDS011;54366;51.980;5.856;2023-03-01T03:02:39;4.97;;;4.47;;
67528;SDS011;54366;51.980;5.856;2023-03-01T03:05:18;5.22;;;4.72;;
67528;SDS011;54366;51.980;5.856;2023-03-01T03:07:56;5.97;;;4.45;;
67528;SDS011;54366;51.980;5.856;2023-03-01T03:10:35;4.68;;;4.15;;
67528;SDS011;54366;51.980;5.856;2023-03-01T03:13:12;4.53;;;3.85;;
67528;SDS011;54366;51.980;5.856;2023-03-01T03:15:47;6.00;;;4.93;;
67528;SDS011;54366;51.980;5.856;2023-03-01T03:18:20;4.70;;;3.80;;
67528;SDS011;54366;51.980;5.856;2023-03-01T03:20:53;4.40;;;4.00;;
67528;SDS011;54366;51.980;5.856;2023-03-01T03:23:26;4.22;;;3.92;;
67528;SDS011;54366;51.980;5.856;2023-03-01T03:25:59;5.63;;;4.47;;
67528;SDS011;54366;51.980;5.856;2023-03-01T03:28:33;5.95;;;5.00;;
67528;SDS011;54366;51.980;5.856;2023-03-01T03:31:07;6.45;;;5.40;;
67528;SDS011;54366;51.980;5.856;2023-03-01T03:33:40;5.53;;;4.97;;
67528;SDS011;54366;51.980;5.856;2023-03-01T03:36:16;6.20;;;4.90;;
67528;SDS011;54366;51.980;5.856;2023-03-01T03:38:50;5.00;;;4.45;;
67528;SDS011;54366;51.980;5.856;2023-03-01T03:41:23;5.15;;;4.65;;
67528;SDS011;54366;51.980;5.856;2023-03-01T03:44:02;5.00;;;4.60;;
67528;SDS011;54366;51.980;5.856;2023-03-01T03:46:42;5.90;;;5.20;;
67528;SDS011;54366;51.980;5.856;2023-03-01T03:49:15;5.80;;;4.85;;
67528;SDS011;54366;51.980;5.856;2023-03-01T03:51:48;4.93;;;4.43;;
67528;SDS011;54366;51.980;5.856;2023-03-01T03:54:21;5.57;;;5.05;;
67528;SDS011;54366;51.980;5.856;2023-03-01T03:56:54;5.47;;;4.88;;
67528;SDS011;54366;51.980;5.856;2023-03-01T03:59:27;5.22;;;4.40;;
67528;SDS011;54366;51.980;5.856;2023-03-01T04:02:00;5.20;;;4.07;;
67528;SDS011;54366;51.980;5.856;2023-03-01T04:04:33;5.00;;;4.50;;
67528;SDS011;54366;51.980;5.856;2023-03-01T04:07:06;4.78;;;4.07;;
67528;SDS011;54366;51.980;5.856;2023-03-01T04:09:39;5.13;;;4.07;;
67528;SDS011;54366;51.980;5.856;2023-03-01T04:12:12;4.40;;;3.53;;
67528;SDS011;54366;51.980;5.856;2023-03-01T04:14:45;4.38;;;3.80;;
67528;SDS011;54366;51.980;5.856;2023-03-01T04:17:18;5.15;;;3.78;;
67528;SDS011;54366;51.980;5.856;2023-03-01T04:19:51;5.57;;;4.90;;
67528;SDS011;54366;51.980;5.856;2023-03-01T04:22:24;5.68;;;4.57;;
67528;SDS011;54366;51.980;5.856;2023-03-01T04:25:02;4.88;;;4.35;;
67528;SDS011;54366;51.980;5.856;2023-03-01T04:27:38;4.53;;;4.05;;
67528;SDS011;54366;51.980;5.856;2023-03-01T04:30:11;4.60;;;4.20;;
67528;SDS011;54366;51.980;5.856;2023-03-01T04:32:44;4.85;;;3.92;;
67528;SDS011;54366;51.980;5.856;2023-03-01T04:35:17;4.78;;;4.32;;
67528;SDS011;54366;51.980;5.856;2023-03-01T04:37:50;5.80;;;4.63;;
67528;SDS011;54366;51.980;5.856;2023-03-01T04:40:16;6.13;;;4.25;;
67528;SDS011;54366;51.980;5.856;2023-03-01T04:42:49;6.72;;;4.30;;
67528;SDS011;54366;51.980;5.856;2023-03-01T04:45:28;5.07;;;3.97;;
67528;SDS011;54366;51.980;5.856;2023-03-01T04:48:01;4.40;;;4.00;;
67528;SDS011;54366;51.980;5.856;2023-03-01T04:50:34;5.53;;;4.10;;
67528;SDS011;54366;51.980;5.856;2023-03-01T04:53:07;6.53;;;4.60;;
67528;SDS011;54366;51.980;5.856;2023-03-01T04:58:13;5.05;;;4.25;;
67528;SDS011;54366;51.980;5.856;2023-03-01T05:00:46;5.97;;;4.95;;
67528;SDS011;54366;51.980;5.856;2023-03-01T05:03:19;4.68;;;4.10;;
67528;SDS011;54366;51.980;5.856;2023-03-01T05:05:52;5.93;;;4.70;;
67528;SDS011;54366;51.980;5.856;2023-03-01T05:08:25;6.25;;;4.72;;
67528;SDS011;54366;51.980;5.856;2023-03-01T05:10:59;6.18;;;4.70;;
67528;SDS011;54366;51.980;5.856;2023-03-01T05:13:32;5.00;;;4.45;;
67528;SDS011;54366;51.980;5.856;2023-03-01T05:16:06;7.70;;;4.70;;
67528;SDS011;54366;51.980;5.856;2023-03-01T05:18:43;5.93;;;4.50;;
67528;SDS011;54366;51.980;5.856;2023-03-01T05:21:16;3.55;;;3.25;;
67528;SDS011;54366;51.980;5.856;2023-03-01T05:23:49;4.47;;;4.07;;
67528;SDS011;54366;51.980;5.856;2023-03-01T05:26:22;4.40;;;3.90;;
67528;SDS011;54366;51.980;5.856;2023-03-01T05:28:59;5.15;;;4.25;;
67528;SDS011;54366;51.980;5.856;2023-03-01T05:31:32;4.18;;;3.70;;
67528;SDS011;54366;51.980;5.856;2023-03-01T05:34:05;4.78;;;3.95;;
67528;SDS011;54366;51.980;5.856;2023-03-01T05:36:38;3.80;;;3.40;;
67528;SDS011;54366;51.980;5.856;2023-03-01T05:39:11;4.85;;;4.07;;
67528;SDS011;54366;51.980;5.856;2023-03-01T05:41:44;5.60;;;4.10;;
67528;SDS011;54366;51.980;5.856;2023-03-01T05:44:17;4.25;;;3.85;;
67528;SDS011;54366;51.980;5.856;2023-03-01T05:47:03;5.15;;;4.40;;
67528;SDS011;54366;51.980;5.856;2023-03-01T05:49:36;5.25;;;4.30;;
67528;SDS011;54366;51.980;5.856;2023-03-01T05:52:09;5.28;;;4.18;;
67528;SDS011;54366;51.980;5.856;2023-03-01T05:54:42;5.10;;;4.18;;
67528;SDS011;54366;51.980;5.856;2023-03-01T05:57:08;6.35;;;4.43;;
67528;SDS011;54366;51.980;5.856;2023-03-01T05:59:41;5.88;;;4.47;;
67528;SDS011;54366;51.980;5.856;2023-03-01T06:02:07;5.07;;;4.30;;
67528;SDS011;54366;51.980;5.856;2023-03-01T06:04:40;5.45;;;4.38;;
67528;SDS011;54366;51.980;5.856;2023-03-01T06:07:13;5.25;;;4.10;;
67528;SDS011;54366;51.980;5.856;2023-03-01T06:09:46;6.88;;;4.57;;
67528;SDS011;54366;51.980;5.856;2023-03-01T06:12:19;4.53;;;4.10;;
67528;SDS011;54366;51.980;5.856;2023-03-01T06:14:52;4.55;;;4.10;;
67528;SDS011;54366;51.980;5.856;2023-03-01T06:17:25;4.43;;;3.55;;
67528;SDS011;54366;51.980;5.856;2023-03-01T06:20:01;3.63;;;3.15;;
67528;SDS011;54366;51.980;5.856;2023-03-01T06:22:34;3.95;;;3.53;;
67528;SDS011;54366;51.980;5.856;2023-03-01T06:25:07;4.28;;;3.83;;
67528;SDS011;54366;51.980;5.856;2023-03-01T06:27:41;5.30;;;4.25;;
67528;SDS011;54366;51.980;5.856;2023-03-01T06:30:15;6.30;;;4.93;;
67528;SDS011;54366;51.980;5.856;2023-03-01T06:32:49;6.65;;;4.85;;
67528;SDS011;54366;51.980;5.856;2023-03-01T06:35:22;4.88;;;3.75;;
67528;SDS011;54366;51.980;5.856;2023-03-01T06:37:55;5.85;;;4.38;;
67528;SDS011;54366;51.980;5.856;2023-03-01T06:40:28;7.65;;;4.45;;
67528;SDS011;54366;51.980;5.856;2023-03-01T06:43:03;5.32;;;3.90;;
67528;SDS011;54366;51.980;5.856;2023-03-01T06:45:29;5.53;;;4.40;;
67528;SDS011;54366;51.980;5.856;2023-03-01T06:48:09;5.35;;;4.70;;
67528;SDS011;54366;51.980;5.856;2023-03-01T06:50:42;5.15;;;4.65;;
67528;SDS011;54366;51.980;5.856;2023-03-01T06:53:15;6.38;;;4.95;;
67528;SDS011;54366;51.980;5.856;2023-03-01T06:55:53;7.32;;;5.68;;
67528;SDS011;54366;51.980;5.856;2023-03-01T06:58:27;7.88;;;5.93;;
67528;SDS011;54366;51.980;5.856;2023-03-01T07:00:53;6.93;;;4.85;;
67528;SDS011;54366;51.980;5.856;2023-03-01T07:03:26;7.18;;;4.65;;
67528;SDS011;54366;51.980;5.856;2023-03-01T07:05:59;6.30;;;4.80;;
67528;SDS011;54366;51.980;5.856;2023-03-01T07:08:32;4.90;;;4.40;;
67528;SDS011;54366;51.980;5.856;2023-03-01T07:11:05;5.78;;;4.75;;
67528;SDS011;54366;51.980;5.856;2023-03-01T07:13:38;6.38;;;4.75;;
67528;SDS011;54366;51.980;5.856;2023-03-01T07:16:11;5.85;;;5.03;;
67528;SDS011;54366;51.980;5.856;2023-03-01T07:18:37;7.30;;;5.97;;
67528;SDS011;54366;51.980;5.856;2023-03-01T07:21:11;7.03;;;5.75;;
67528;SDS011;54366;51.980;5.856;2023-03-01T07:23:46;10.95;;;6.80;;
67528;SDS011;54366;51.980;5.856;2023-03-01T07:26:20;6.43;;;5.53;;
67528;SDS011;54366;51.980;5.856;2023-03-01T07:28:53;6.60;;;5.53;;
67528;SDS011;54366;51.980;5.856;2023-03-01T07:31:26;6.85;;;5.43;;
67528;SDS011;54366;51.980;5.856;2023-03-01T07:34:00;9.38;;;5.82;;
67528;SDS011;54366;51.980;5.856;2023-03-01T07:36:33;6.00;;;5.05;;
67528;SDS011;54366;51.980;5.856;2023-03-01T07:39:06;6.57;;;5.07;;
67528;SDS011;54366;51.980;5.856;2023-03-01T07:41:39;5.35;;;4.72;;
67528;SDS011;54366;51.980;5.856;2023-03-01T07:44:12;5.15;;;4.55;;
67528;SDS011;54366;51.980;5.856;2023-03-01T07:46:51;6.85;;;5.30;;
67528;SDS011;54366;51.980;5.856;2023-03-01T07:49:28;4.97;;;4.43;;
67528;SDS011;54366;51.980;5.856;2023-03-01T07:52:01;6.43;;;4.60;;
67528;SDS011;54366;51.980;5.856;2023-03-01T07:54:34;6.95;;;5.07;;
67528;SDS011;54366;51.980;5.856;2023-03-01T07:57:07;5.78;;;4.63;;
67528;SDS011;54366;51.980;5.856;2023-03-01T07:59:40;4.88;;;3.67;;
67528;SDS011;54366;51.980;5.856;2023-03-01T08:02:13;5.55;;;5.00;;
67528;SDS011;54366;51.980;5.856;2023-03-01T08:04:47;5.65;;;4.50;;
67528;SDS011;54366;51.980;5.856;2023-03-01T08:07:13;5.78;;;4.82;;
67528;SDS011;54366;51.980;5.856;2023-03-01T08:09:46;4.55;;;3.85;;
67528;SDS011;54366;51.980;5.856;2023-03-01T08:12:12;5.15;;;4.13;;
67528;SDS011;54366;51.980;5.856;2023-03-01T08:14:45;5.22;;;4.07;;
67528;SDS011;54366;51.980;5.856;2023-03-01T08:17:18;6.00;;;4.78;;
67528;SDS011;54366;51.980;5.856;2023-03-01T08:19:51;5.63;;;4.35;;
67528;SDS011;54366;51.980;5.856;2023-03-01T08:22:24;4.95;;;4.45;;
67528;SDS011;54366;51.980;5.856;2023-03-01T08:24:57;6.78;;;5.70;;
67528;SDS011;54366;51.980;5.856;2023-03-01T08:27:30;5.75;;;4.70;;
67528;SDS011;54366;51.980;5.856;2023-03-01T08:30:03;5.30;;;4.78;;
67528;SDS011;54366;51.980;5.856;2023-03-01T08:32:37;5.60;;;4.28;;
67528;SDS011;54366;51.980;5.856;2023-03-01T08:35:11;6.53;;;4.53;;
67528;SDS011;54366;51.980;5.856;2023-03-01T08:37:44;5.55;;;4.72;;
67528;SDS011;54366;51.980;5.856;2023-03-01T08:40:24;6.38;;;5.18;;
67528;SDS011;54366;51.980;5.856;2023-03-01T08:43:10;6.90;;;5.72;;
67528;SDS011;54366;51.980;5.856;2023-03-01T08:45:43;5.63;;;4.95;;
67528;SDS011;54366;51.980;5.856;2023-03-01T08:48:23;6.50;;;5.55;;
67528;SDS011;54366;51.980;5.856;2023-03-01T08:50:56;5.40;;;4.53;;
67528;SDS011;54366;51.980;5.856;2023-03-01T08:53:29;7.45;;;5.18;;
67528;SDS011;54366;51.980;5.856;2023-03-01T08:56:02;4.93;;;4.35;;
67528;SDS011;54366;51.980;5.856;2023-03-01T08:58:29;7.93;;;5.60;;
67528;SDS011;54366;51.980;5.856;2023-03-01T09:01:09;7.18;;;5.03;;
67528;SDS011;54366;51.980;5.856;2023-03-01T09:03:43;6.72;;;4.85;;
67528;SDS011;54366;51.980;5.856;2023-03-01T09:06:16;4.72;;;3.72;;
67528;SDS011;54366;51.980;5.856;2023-03-01T09:08:49;6.07;;;3.97;;
67528;SDS011;54366;51.980;5.856;2023-03-01T09:11:23;4.97;;;4.10;;
67528;SDS011;54366;51.980;5.856;2023-03-01T09:13:56;7.05;;;4.38;;
67528;SDS011;54366;51.980;5.856;2023-03-01T09:16:29;8.57;;;5.47;;
67528;SDS011;54366;51.980;5.856;2023-03-01T09:19:06;7.65;;;4.40;;
67528;SDS011;54366;51.980;5.856;2023-03-01T09:21:32;4.75;;;3.90;;
67528;SDS011;54366;51.980;5.856;2023-03-01T09:24:05;6.45;;;4.22;;
67528;SDS011;54366;51.980;5.856;2023-03-01T09:26:39;5.38;;;4.18;;
67528;SDS011;54366;51.980;5.856;2023-03-01T09:29:12;5.10;;;3.58;;
67528;SDS011;54366;51.980;5.856;2023-03-01T09:31:45;5.55;;;3.97;;
67528;SDS011;54366;51.980;5.856;2023-03-01T09:34:18;6.22;;;3.60;;
67528;SDS011;54366;51.980;5.856;2023-03-01T09:36:56;5.10;;;4.10;;
67528;SDS011;54366;51.980;5.856;2023-03-01T09:39:30;5.13;;;3.85;;
67528;SDS011;54366;51.980;5.856;2023-03-01T09:42:04;4.47;;;4.07;;
67528;SDS011;54366;51.980;5.856;2023-03-01T09:44:51;4.82;;;4.00;;
67528;SDS011;54366;51.980;5.856;2023-03-01T09:47:33;7.20;;;4.97;;
67528;SDS011;54366;51.980;5.856;2023-03-01T09:50:20;6.78;;;5.78;;
67528;SDS011;54366;51.980;5.856;2023-03-01T09:56:55;8.30;;;6.38;;
67528;SDS011;54366;51.980;5.856;2023-03-01T09:58:59;7.20;;;6.07;;
67528;SDS011;54366;51.980;5.856;2023-03-01T10:05:14;9.23;;;7.97;;
67528;SDS011;54366;51.980;5.856;2023-03-01T10:08:30;10.50;;;9.15;;
67528;SDS011;54366;51.980;5.856;2023-03-01T10:11:22;7.97;;;7.18;;
67528;SDS011;54366;51.980;5.856;2023-03-01T10:14:27;8.63;;;7.07;;
67528;SDS011;54366;51.980;5.856;2023-03-01T10:17:39;8.02;;;7.13;;
67528;SDS011;54366;51.980;5.856;2023-03-01T10:20:26;8.25;;;7.40;;
67528;SDS011;54366;51.980;5.856;2023-03-01T10:23:07;9.10;;;6.95;;
67528;SDS011;54366;51.980;5.856;2023-03-01T10:28:59;6.95;;;5.80;;
67528;SDS011;54366;51.980;5.856;2023-03-01T10:31:44;6.68;;;5.97;;
67528;SDS011;54366;51.980;5.856;2023-03-01T10:34:31;5.90;;;5.32;;
67528;SDS011;54366;51.980;5.856;2023-03-01T10:37:16;6.10;;;4.90;;
67528;SDS011;54366;51.980;5.856;2023-03-01T10:40:24;5.28;;;4.78;;
67528;SDS011;54366;51.980;5.856;2023-03-01T10:42:51;5.90;;;5.15;;
67528;SDS011;54366;51.980;5.856;2023-03-01T10:45:34;6.63;;;5.05;;
67528;SDS011;54366;51.980;5.856;2023-03-01T10:48:16;5.20;;;4.70;;
67528;SDS011;54366;51.980;5.856;2023-03-01T10:53:52;5.78;;;5.20;;
67528;SDS011;54366;51.980;5.856;2023-03-01T10:56:25;5.30;;;4.80;;
67528;SDS011;54366;51.980;5.856;2023-03-01T10:58:59;5.88;;;4.70;;
67528;SDS011;54366;51.980;5.856;2023-03-01T11:01:35;6.20;;;4.60;;
67528;SDS011;54366;51.980;5.856;2023-03-01T11:04:12;6.38;;;5.43;;
67528;SDS011;54366;51.980;5.856;2023-03-01T11:06:46;6.03;;;5.32;;
67528;SDS011;54366;51.980;5.856;2023-03-01T11:09:32;5.93;;;4.90;;
67528;SDS011;54366;51.980;5.856;2023-03-01T11:12:13;5.00;;;4.50;;
67528;SDS011;54366;51.980;5.856;2023-03-01T11:14:49;5.35;;;4.63;;
67528;SDS011;54366;51.980;5.856;2023-03-01T11:17:29;5.60;;;4.80;;
67528;SDS011;54366;51.980;5.856;2023-03-01T11:23:13;4.65;;;4.07;;
67528;SDS011;54366;51.980;5.856;2023-03-01T11:25:54;4.57;;;4.13;;
67528;SDS011;54366;51.980;5.856;2023-03-01T11:28:29;5.00;;;4.50;;
67528;SDS011;54366;51.980;5.856;2023-03-01T11:31:06;5.43;;;4.43;;
67528;SDS011;54366;51.980;5.856;2023-03-01T11:33:53;4.80;;;4.30;;
67528;SDS011;54366;51.980;5.856;2023-03-01T11:36:47;5.30;;;4.80;;
67528;SDS011;54366;51.980;5.856;2023-03-01T11:39:31;5.03;;;4.15;;
67528;SDS011;54366;51.980;5.856;2023-03-01T11:42:15;6.32;;;4.45;;
67528;SDS011;54366;51.980;5.856;2023-03-01T11:44:54;4.95;;;4.13;;
67528;SDS011;54366;51.980;5.856;2023-03-01T11:47:41;4.30;;;3.90;;
67528;SDS011;54366;51.980;5.856;2023-03-01T11:50:44;5.45;;;4.60;;
67528;SDS011;54366;51.980;5.856;2023-03-01T11:56:29;4.35;;;3.92;;
67528;SDS011;54366;51.980;5.856;2023-03-01T11:59:23;5.20;;;4.10;;
67528;SDS011;54366;51.980;5.856;2023-03-01T12:02:40;5.57;;;4.75;;
67528;SDS011;54366;51.980;5.856;2023-03-01T12:05:42;5.00;;;4.53;;
67528;SDS011;54366;51.980;5.856;2023-03-01T12:08:30;5.50;;;4.55;;
67528;SDS011;54366;51.980;5.856;2023-03-01T12:14:51;6.07;;;4.82;;
67528;SDS011;54366;51.980;5.856;2023-03-01T12:17:53;4.90;;;4.38;;
67528;SDS011;54366;51.980;5.856;2023-03-01T12:27:57;5.88;;;4.90;;
67528;SDS011;54366;51.980;5.856;2023-03-01T12:37:11;5.07;;;4.30;;
67528;SDS011;54366;51.980;5.856;2023-03-01T12:44:10;6.07;;;4.10;;
67528;SDS011;54366;51.980;5.856;2023-03-01T12:46:44;6.07;;;4.53;;
67528;SDS011;54366;51.980;5.856;2023-03-01T12:49:40;4.57;;;4.13;;
67528;SDS011;54366;51.980;5.856;2023-03-01T12:55:37;4.32;;;3.92;;
67528;SDS011;54366;51.980;5.856;2023-03-01T13:04:32;4.50;;;4.10;;
67528;SDS011;54366;51.980;5.856;2023-03-01T13:07:41;7.35;;;4.53;;
67528;SDS011;54366;51.980;5.856;2023-03-01T13:10:47;4.45;;;3.40;;
67528;SDS011;54366;51.980;5.856;2023-03-01T13:13:24;6.60;;;4.85;;
67528;SDS011;54366;51.980;5.856;2023-03-01T13:15:58;4.28;;;3.60;;
67528;SDS011;54366;51.980;5.856;2023-03-01T13:19:26;4.68;;;3.88;;
67528;SDS011;54366;51.980;5.856;2023-03-01T13:22:31;4.22;;;3.83;;
67528;SDS011;54366;51.980;5.856;2023-03-01T13:25:12;5.55;;;4.63;;
67528;SDS011;54366;51.980;5.856;2023-03-01T13:27:47;4.80;;;4.15;;
67528;SDS011;54366;51.980;5.856;2023-03-01T13:39:26;4.65;;;4.05;;
67528;SDS011;54366;51.980;5.856;2023-03-01T13:42:25;5.05;;;4.25;;
67528;SDS011;54366;51.980;5.856;2023-03-01T13:45:23;4.68;;;4.03;;
67528;SDS011;54366;51.980;5.856;2023-03-01T13:48:10;6.07;;;3.97;;
67528;SDS011;54366;51.980;5.856;2023-03-01T13:50:59;5.93;;;4.63;;
67528;SDS011;54366;51.980;5.856;2023-03-01T13:53:36;4.70;;;3.85;;
67528;SDS011;54366;51.980;5.856;2023-03-01T13:56:13;4.95;;;3.92;;
67528;SDS011;54366;51.980;5.856;2023-03-01T13:59:00;5.13;;;4.10;;
67528;SDS011;54366;51.980;5.856;2023-03-01T14:01:36;6.45;;;4.68;;
67528;SDS011;54366;51.980;5.856;2023-03-01T14:07:13;5.38;;;4.10;;
67528;SDS011;54366;51.980;5.856;2023-03-01T14:09:56;4.78;;;4.00;;
67528;SDS011;54366;51.980;5.856;2023-03-01T14:15:34;5.43;;;4.22;;
67528;SDS011;54366;51.980;5.856;2023-03-01T14:18:21;4.95;;;4.00;;
67528;SDS011;54366;51.980;5.856;2023-03-01T14:21:00;4.97;;;4.32;;
67528;SDS011;54366;51.980;5.856;2023-03-01T14:23:39;5.80;;;4.30;;
67528;SDS011;54366;51.980;5.856;2023-03-01T14:26:14;5.00;;;4.50;;
67528;SDS011;54366;51.980;5.856;2023-03-01T14:28:54;4.93;;;4.25;;
67528;SDS011;54366;51.980;5.856;2023-03-01T14:31:35;6.68;;;4.60;;
67528;SDS011;54366;51.980;5.856;2023-03-01T14:34:18;5.30;;;4.30;;
67528;SDS011;54366;51.980;5.856;2023-03-01T14:36:56;5.55;;;4.32;;
67528;SDS011;54366;51.980;5.856;2023-03-01T14:39:29;5.53;;;4.43;;
67528;SDS011;54366;51.980;5.856;2023-03-01T14:42:04;4.85;;;4.10;;
67528;SDS011;54366;51.980;5.856;2023-03-01T14:44:38;6.25;;;4.60;;
67528;SDS011;54366;51.980;5.856;2023-03-01T14:47:21;4.70;;;4.25;;
67528;SDS011;54366;51.980;5.856;2023-03-01T14:50:09;4.63;;;4.13;;
67528;SDS011;54366;51.980;5.856;2023-03-01T14:53:06;4.88;;;4.00;;
67528;SDS011;54366;51.980;5.856;2023-03-01T14:55:44;4.10;;;3.63;;
67528;SDS011;54366;51.980;5.856;2023-03-01T14:58:14;4.75;;;3.97;;
67528;SDS011;54366;51.980;5.856;2023-03-01T15:00:50;4.80;;;3.85;;
67528;SDS011;54366;51.980;5.856;2023-03-01T15:03:36;4.38;;;3.97;;
67528;SDS011;54366;51.980;5.856;2023-03-01T15:06:19;5.82;;;4.10;;
67528;SDS011;54366;51.980;5.856;2023-03-01T15:08:54;4.75;;;3.78;;
67528;SDS011;54366;51.980;5.856;2023-03-01T15:11:30;4.53;;;4.10;;
67528;SDS011;54366;51.980;5.856;2023-03-01T15:14:24;4.55;;;3.97;;
67528;SDS011;54366;51.980;5.856;2023-03-01T15:16:58;4.22;;;3.83;;
67528;SDS011;54366;51.980;5.856;2023-03-01T15:19:31;4.63;;;3.92;;
67528;SDS011;54366;51.980;5.856;2023-03-01T15:22:04;5.53;;;4.22;;
67528;SDS011;54366;51.980;5.856;2023-03-01T15:24:48;4.18;;;3.58;;
67528;SDS011;54366;51.980;5.856;2023-03-01T15:27:23;5.05;;;4.28;;
67528;SDS011;54366;51.980;5.856;2023-03-01T15:30:00;5.05;;;3.70;;
67528;SDS011;54366;51.980;5.856;2023-03-01T15:32:34;3.70;;;3.28;;
67528;SDS011;54366;51.980;5.856;2023-03-01T15:41:28;3.10;;;2.80;;
67528;SDS011;54366;51.980;5.856;2023-03-01T15:44:16;3.60;;;3.30;;
67528;SDS011;54366;51.980;5.856;2023-03-01T15:46:50;4.05;;;3.55;;
67528;SDS011;54366;51.980;5.856;2023-03-01T15:49:37;3.80;;;2.97;;
67528;SDS011;54366;51.980;5.856;2023-03-01T15:52:13;3.47;;;3.15;;
67528;SDS011;54366;51.980;5.856;2023-03-01T15:55:01;4.43;;;3.00;;
67528;SDS011;54366;51.980;5.856;2023-03-01T15:57:36;3.58;;;3.10;;
67528;SDS011;54366;51.980;5.856;2023-03-01T16:00:11;4.40;;;3.00;;
67528;SDS011;54366;51.980;5.856;2023-03-01T16:02:45;3.25;;;2.70;;
67528;SDS011;54366;51.980;5.856;2023-03-01T16:05:19;3.40;;;2.80;;
67528;SDS011;54366;51.980;5.856;2023-03-01T16:07:58;4.53;;;2.80;;
67528;SDS011;54366;51.980;5.856;2023-03-01T16:10:26;4.18;;;3.40;;
67528;SDS011;54366;51.980;5.856;2023-03-01T16:12:59;4.30;;;3.30;;
67528;SDS011;54366;51.980;5.856;2023-03-01T16:15:32;3.85;;;2.75;;
67528;SDS011;54366;51.980;5.856;2023-03-01T16:18:10;3.53;;;2.80;;
67528;SDS011;54366;51.980;5.856;2023-03-01T16:20:43;4.47;;;3.20;;
67528;SDS011;54366;51.980;5.856;2023-03-01T16:23:16;3.92;;;3.10;;
67528;SDS011;54366;51.980;5.856;2023-03-01T16:25:42;4.05;;;3.20;;
67528;SDS011;54366;51.980;5.856;2023-03-01T16:28:15;3.72;;;3.00;;
67528;SDS011;54366;51.980;5.856;2023-03-01T16:30:48;3.00;;;2.70;;
67528;SDS011;54366;51.980;5.856;2023-03-01T16:33:21;3.17;;;2.85;;
67528;SDS011;54366;51.980;5.856;2023-03-01T16:35:54;4.35;;;2.90;;
67528;SDS011;54366;51.980;5.856;2023-03-01T16:38:27;2.90;;;2.58;;
67528;SDS011;54366;51.980;5.856;2023-03-01T16:41:01;4.15;;;3.42;;
67528;SDS011;54366;51.980;5.856;2023-03-01T16:43:28;3.60;;;2.80;;
67528;SDS011;54366;51.980;5.856;2023-03-01T16:46:01;4.25;;;2.85;;
67528;SDS011;54366;51.980;5.856;2023-03-01T16:48:42;3.22;;;2.78;;
67528;SDS011;54366;51.980;5.856;2023-03-01T16:51:23;3.60;;;2.70;;
67528;SDS011;54366;51.980;5.856;2023-03-01T16:53:56;2.75;;;2.50;;
67528;SDS011;54366;51.980;5.856;2023-03-01T16:56:29;3.05;;;2.58;;
67528;SDS011;54366;51.980;5.856;2023-03-01T16:59:03;5.10;;;2.90;;
67528;SDS011;54366;51.980;5.856;2023-03-01T17:01:36;2.83;;;2.50;;
67528;SDS011;54366;51.980;5.856;2023-03-01T17:04:13;3.50;;;2.38;;
67528;SDS011;54366;51.980;5.856;2023-03-01T17:06:46;3.25;;;2.42;;
67528;SDS011;54366;51.980;5.856;2023-03-01T17:09:20;4.78;;;3.40;;
67528;SDS011;54366;51.980;5.856;2023-03-01T17:11:54;2.40;;;2.20;;
67528;SDS011;54366;51.980;5.856;2023-03-01T17:14:20;3.20;;;2.75;;
67528;SDS011;54366;51.980;5.856;2023-03-01T17:16:53;3.28;;;2.75;;
67528;SDS011;54366;51.980;5.856;2023-03-01T17:19:26;2.97;;;2.67;;